To NAV CANADA Home Page Login to a new session Search on AWWS site Feedback and Comments Disclaimer Vers la page française équivalente Tips FAQ What's new on the site To the Forecasts and Observations / NOTAM section To "File a Flight Plan" website Publications and other links Update of the User's profile FIC Telephone Numbers My Weather Data Folder Route Weather Data Regional Weather Data Local Weather Data To the Forecasts and Observations / NOTAM section
Request Generated 07/04/2015 at 20:43:22 UTC . Weather information available at that time is displayed.

METAR/TAF

MEDICINE HAT/AB    (show WxCam)

METAR CYXH 042000Z 03008KT 350V110 30SM FEW080 SCT280 28/09 A2986 RMK
CU2CI2 SLP100 DENSITY ALT 4400FT=
METAR CYXH 041900Z 00000KT 30SM FEW120 SCT280 27/08 A2987 RMK AC2CI1
SLP103 DENSITY ALT 4200FT=
METAR CYXH 041800Z 02010KT 340V050 30SM FEW100 SCT280 26/09 A2987 RMK
AC1CI2 SLP105 DENSITY ALT 4100FT=

TAF CYXH 041740Z 0418/0506 05012G22KT P6SM SCT250
FM050300 22007KT P6SM BKN100
FM050500 26006KT P6SM -SHRA OVC030 TEMPO 0505/0506 4SM -SHRA BR
OVC020
RMK NXT FCST BY 050000Z=
Your time UTC time
Weather data provided by Environment Canada and NAV CANADA